sensor_id;sensor_type;location;lat;lon;timestamp;P1;durP1;ratioP1;P2;durP2;ratioP2
32633;SDS011;19043;51.012;5.648;2023-09-18T00:01:47;8.88;;;6.95;;
32633;SDS011;19043;51.012;5.648;2023-09-18T00:04:12;10.60;;;7.35;;
32633;SDS011;19043;51.012;5.648;2023-09-18T00:06:37;9.77;;;7.00;;
32633;SDS011;19043;51.012;5.648;2023-09-18T00:09:02;9.03;;;6.67;;
32633;SDS011;19043;51.012;5.648;2023-09-18T00:11:28;9.10;;;6.83;;
32633;SDS011;19043;51.012;5.648;2023-09-18T00:13:53;9.60;;;7.70;;
32633;SDS011;19043;51.012;5.648;2023-09-18T00:16:18;10.23;;;6.90;;
32633;SDS011;19043;51.012;5.648;2023-09-18T00:18:44;12.50;;;7.63;;
32633;SDS011;19043;51.012;5.648;2023-09-18T00:21:09;10.45;;;7.97;;
32633;SDS011;19043;51.012;5.648;2023-09-18T00:23:35;9.82;;;8.35;;
32633;SDS011;19043;51.012;5.648;2023-09-18T00:26:01;10.63;;;8.27;;
32633;SDS011;19043;51.012;5.648;2023-09-18T00:28:26;8.90;;;7.88;;
32633;SDS011;19043;51.012;5.648;2023-09-18T00:30:51;12.77;;;8.00;;
32633;SDS011;19043;51.012;5.648;2023-09-18T00:33:16;11.18;;;7.85;;
32633;SDS011;19043;51.012;5.648;2023-09-18T00:35:47;13.48;;;8.02;;
32633;SDS011;19043;51.012;5.648;2023-09-18T00:38:12;10.25;;;7.38;;
32633;SDS011;19043;51.012;5.648;2023-09-18T00:40:38;11.23;;;7.68;;
32633;SDS011;19043;51.012;5.648;2023-09-18T00:43:03;10.50;;;7.97;;
32633;SDS011;19043;51.012;5.648;2023-09-18T00:45:28;11.57;;;7.57;;
32633;SDS011;19043;51.012;5.648;2023-09-18T00:47:54;14.90;;;9.10;;
32633;SDS011;19043;51.012;5.648;2023-09-18T00:50:19;11.13;;;7.80;;
32633;SDS011;19043;51.012;5.648;2023-09-18T00:52:48;9.27;;;7.90;;
32633;SDS011;19043;51.012;5.648;2023-09-18T00:55:13;13.73;;;7.78;;
32633;SDS011;19043;51.012;5.648;2023-09-18T00:57:40;11.02;;;8.23;;
32633;SDS011;19043;51.012;5.648;2023-09-18T01:00:05;12.70;;;7.43;;
32633;SDS011;19043;51.012;5.648;2023-09-18T01:02:31;12.77;;;7.70;;
32633;SDS011;19043;51.012;5.648;2023-09-18T01:04:56;10.97;;;7.80;;
32633;SDS011;19043;51.012;5.648;2023-09-18T01:07:22;9.80;;;7.82;;
32633;SDS011;19043;51.012;5.648;2023-09-18T01:09:47;11.77;;;8.17;;
32633;SDS011;19043;51.012;5.648;2023-09-18T01:12:23;11.07;;;7.83;;
32633;SDS011;19043;51.012;5.648;2023-09-18T01:17:27;14.13;;;7.90;;
32633;SDS011;19043;51.012;5.648;2023-09-18T01:19:53;9.80;;;7.60;;
32633;SDS011;19043;51.012;5.648;2023-09-18T01:22:19;12.57;;;7.95;;
32633;SDS011;19043;51.012;5.648;2023-09-18T01:24:45;15.25;;;8.95;;
32633;SDS011;19043;51.012;5.648;2023-09-18T01:27:11;11.02;;;7.60;;
32633;SDS011;19043;51.012;5.648;2023-09-18T01:29:37;9.77;;;7.18;;
32633;SDS011;19043;51.012;5.648;2023-09-18T01:32:03;9.70;;;7.95;;
32633;SDS011;19043;51.012;5.648;2023-09-18T01:34:29;15.23;;;7.78;;
32633;SDS011;19043;51.012;5.648;2023-09-18T01:36:57;12.18;;;7.43;;
32633;SDS011;19043;51.012;5.648;2023-09-18T01:39:22;9.75;;;6.68;;
32633;SDS011;19043;51.012;5.648;2023-09-18T01:41:48;10.18;;;6.82;;
32633;SDS011;19043;51.012;5.648;2023-09-18T01:44:14;11.18;;;7.65;;
32633;SDS011;19043;51.012;5.648;2023-09-18T01:46:39;7.55;;;6.57;;
32633;SDS011;19043;51.012;5.648;2023-09-18T01:49:05;7.85;;;6.65;;
32633;SDS011;19043;51.012;5.648;2023-09-18T01:51:31;10.13;;;6.60;;
32633;SDS011;19043;51.012;5.648;2023-09-18T01:53:56;10.35;;;6.95;;
32633;SDS011;19043;51.012;5.648;2023-09-18T01:56:22;14.15;;;7.38;;
32633;SDS011;19043;51.012;5.648;2023-09-18T01:58:48;10.00;;;6.90;;
32633;SDS011;19043;51.012;5.648;2023-09-18T02:01:14;10.70;;;7.65;;
32633;SDS011;19043;51.012;5.648;2023-09-18T02:03:39;10.70;;;6.80;;
32633;SDS011;19043;51.012;5.648;2023-09-18T02:06:09;11.15;;;6.88;;
32633;SDS011;19043;51.012;5.648;2023-09-18T02:08:35;11.52;;;6.22;;
32633;SDS011;19043;51.012;5.648;2023-09-18T02:11:00;9.25;;;7.40;;
32633;SDS011;19043;51.012;5.648;2023-09-18T02:13:25;12.73;;;7.50;;
32633;SDS011;19043;51.012;5.648;2023-09-18T02:15:50;10.68;;;6.30;;
32633;SDS011;19043;51.012;5.648;2023-09-18T02:18:16;12.55;;;7.07;;
32633;SDS011;19043;51.012;5.648;2023-09-18T02:20:41;8.80;;;5.68;;
32633;SDS011;19043;51.012;5.648;2023-09-18T02:23:06;11.85;;;5.82;;
32633;SDS011;19043;51.012;5.648;2023-09-18T02:25:32;9.25;;;5.55;;
32633;SDS011;19043;51.012;5.648;2023-09-18T02:27:57;10.53;;;6.40;;
32633;SDS011;19043;51.012;5.648;2023-09-18T02:30:22;10.02;;;5.40;;
32633;SDS011;19043;51.012;5.648;2023-09-18T02:32:47;10.50;;;5.82;;
32633;SDS011;19043;51.012;5.648;2023-09-18T02:35:13;13.68;;;5.43;;
32633;SDS011;19043;51.012;5.648;2023-09-18T02:37:38;13.82;;;5.47;;
32633;SDS011;19043;51.012;5.648;2023-09-18T02:40:04;15.43;;;5.88;;
32633;SDS011;19043;51.012;5.648;2023-09-18T02:42:30;11.05;;;5.55;;
32633;SDS011;19043;51.012;5.648;2023-09-18T02:44:55;7.10;;;5.27;;
32633;SDS011;19043;51.012;5.648;2023-09-18T02:47:20;10.73;;;5.97;;
32633;SDS011;19043;51.012;5.648;2023-09-18T02:49:45;11.80;;;6.67;;
32633;SDS011;19043;51.012;5.648;2023-09-18T02:52:11;12.27;;;5.47;;
32633;SDS011;19043;51.012;5.648;2023-09-18T02:54:36;11.60;;;6.73;;
32633;SDS011;19043;51.012;5.648;2023-09-18T02:57:01;11.57;;;6.60;;
32633;SDS011;19043;51.012;5.648;2023-09-18T02:59:27;14.07;;;6.15;;
32633;SDS011;19043;51.012;5.648;2023-09-18T03:01:52;12.73;;;7.20;;
32633;SDS011;19043;51.012;5.648;2023-09-18T03:04:17;10.55;;;7.13;;
32633;SDS011;19043;51.012;5.648;2023-09-18T03:06:43;13.98;;;7.30;;
32633;SDS011;19043;51.012;5.648;2023-09-18T03:09:08;11.60;;;6.97;;
32633;SDS011;19043;51.012;5.648;2023-09-18T03:11:33;10.65;;;7.30;;
32633;SDS011;19043;51.012;5.648;2023-09-18T03:13:58;10.37;;;6.93;;
32633;SDS011;19043;51.012;5.648;2023-09-18T03:16:23;10.87;;;6.23;;
32633;SDS011;19043;51.012;5.648;2023-09-18T03:18:49;12.25;;;6.55;;
32633;SDS011;19043;51.012;5.648;2023-09-18T03:21:14;9.00;;;5.25;;
32633;SDS011;19043;51.012;5.648;2023-09-18T03:23:39;12.70;;;6.13;;
32633;SDS011;19043;51.012;5.648;2023-09-18T03:26:04;9.10;;;4.93;;
32633;SDS011;19043;51.012;5.648;2023-09-18T03:28:30;10.52;;;5.80;;
32633;SDS011;19043;51.012;5.648;2023-09-18T03:30:55;10.38;;;5.20;;
32633;SDS011;19043;51.012;5.648;2023-09-18T03:33:20;14.73;;;5.40;;
32633;SDS011;19043;51.012;5.648;2023-09-18T03:35:49;11.45;;;5.30;;
32633;SDS011;19043;51.012;5.648;2023-09-18T03:38:15;6.22;;;4.72;;
32633;SDS011;19043;51.012;5.648;2023-09-18T03:40:40;9.63;;;5.13;;
32633;SDS011;19043;51.012;5.648;2023-09-18T03:43:06;9.32;;;4.63;;
32633;SDS011;19043;51.012;5.648;2023-09-18T03:45:32;7.97;;;5.03;;
32633;SDS011;19043;51.012;5.648;2023-09-18T03:47:57;10.53;;;5.27;;
32633;SDS011;19043;51.012;5.648;2023-09-18T03:50:22;7.33;;;5.07;;
32633;SDS011;19043;51.012;5.648;2023-09-18T03:52:47;7.40;;;4.63;;
32633;SDS011;19043;51.012;5.648;2023-09-18T03:55:13;8.13;;;4.93;;
32633;SDS011;19043;51.012;5.648;2023-09-18T03:57:38;10.10;;;4.68;;
32633;SDS011;19043;51.012;5.648;2023-09-18T04:00:04;10.85;;;4.35;;
32633;SDS011;19043;51.012;5.648;2023-09-18T04:02:30;9.15;;;4.78;;
32633;SDS011;19043;51.012;5.648;2023-09-18T04:04:55;7.88;;;4.82;;
32633;SDS011;19043;51.012;5.648;2023-09-18T04:07:20;10.10;;;4.13;;
32633;SDS011;19043;51.012;5.648;2023-09-18T04:09:46;8.85;;;5.07;;
32633;SDS011;19043;51.012;5.648;2023-09-18T04:12:11;9.80;;;4.45;;
32633;SDS011;19043;51.012;5.648;2023-09-18T04:14:36;7.07;;;4.50;;
32633;SDS011;19043;51.012;5.648;2023-09-18T04:17:01;7.80;;;4.53;;
32633;SDS011;19043;51.012;5.648;2023-09-18T04:19:27;7.03;;;4.93;;
32633;SDS011;19043;51.012;5.648;2023-09-18T04:21:52;6.65;;;4.30;;
32633;SDS011;19043;51.012;5.648;2023-09-18T04:24:17;6.95;;;4.95;;
32633;SDS011;19043;51.012;5.648;2023-09-18T04:26:43;6.67;;;4.37;;
32633;SDS011;19043;51.012;5.648;2023-09-18T04:29:08;8.02;;;4.75;;
32633;SDS011;19043;51.012;5.648;2023-09-18T04:31:33;5.82;;;3.78;;
32633;SDS011;19043;51.012;5.648;2023-09-18T04:33:59;6.07;;;4.53;;
32633;SDS011;19043;51.012;5.648;2023-09-18T04:36:24;6.17;;;4.23;;
32633;SDS011;19043;51.012;5.648;2023-09-18T04:38:50;8.45;;;4.07;;
32633;SDS011;19043;51.012;5.648;2023-09-18T04:41:15;8.35;;;4.60;;
32633;SDS011;19043;51.012;5.648;2023-09-18T04:43:41;10.30;;;4.93;;
32633;SDS011;19043;51.012;5.648;2023-09-18T04:46:07;7.75;;;4.65;;
32633;SDS011;19043;51.012;5.648;2023-09-18T04:48:33;8.50;;;4.40;;
32633;SDS011;19043;51.012;5.648;2023-09-18T04:50:59;6.22;;;3.97;;
32633;SDS011;19043;51.012;5.648;2023-09-18T04:53:24;9.63;;;4.22;;
32633;SDS011;19043;51.012;5.648;2023-09-18T04:55:49;8.13;;;3.63;;
32633;SDS011;19043;51.012;5.648;2023-09-18T04:58:15;11.13;;;3.60;;
32633;SDS011;19043;51.012;5.648;2023-09-18T05:00:41;6.32;;;4.30;;
32633;SDS011;19043;51.012;5.648;2023-09-18T05:03:06;7.72;;;4.20;;
32633;SDS011;19043;51.012;5.648;2023-09-18T05:05:33;8.07;;;3.88;;
32633;SDS011;19043;51.012;5.648;2023-09-18T05:07:58;7.55;;;3.88;;
32633;SDS011;19043;51.012;5.648;2023-09-18T05:10:23;9.85;;;3.92;;
32633;SDS011;19043;51.012;5.648;2023-09-18T05:12:49;7.50;;;3.95;;
32633;SDS011;19043;51.012;5.648;2023-09-18T05:15:15;7.22;;;3.90;;
32633;SDS011;19043;51.012;5.648;2023-09-18T05:20:07;8.88;;;3.45;;
32633;SDS011;19043;51.012;5.648;2023-09-18T05:22:33;7.40;;;4.28;;
32633;SDS011;19043;51.012;5.648;2023-09-18T05:24:58;7.55;;;3.40;;
32633;SDS011;19043;51.012;5.648;2023-09-18T05:27:23;5.28;;;3.35;;
32633;SDS011;19043;51.012;5.648;2023-09-18T05:29:50;7.40;;;3.20;;
32633;SDS011;19043;51.012;5.648;2023-09-18T05:32:15;5.13;;;2.90;;
32633;SDS011;19043;51.012;5.648;2023-09-18T05:34:40;4.93;;;2.90;;
32633;SDS011;19043;51.012;5.648;2023-09-18T05:37:05;7.20;;;3.10;;
32633;SDS011;19043;51.012;5.648;2023-09-18T05:39:31;4.68;;;2.92;;
32633;SDS011;19043;51.012;5.648;2023-09-18T05:41:56;5.80;;;2.78;;
32633;SDS011;19043;51.012;5.648;2023-09-18T05:44:23;4.40;;;2.75;;
32633;SDS011;19043;51.012;5.648;2023-09-18T05:46:48;4.47;;;2.25;;
32633;SDS011;19043;51.012;5.648;2023-09-18T05:49:13;4.05;;;2.10;;
32633;SDS011;19043;51.012;5.648;2023-09-18T05:51:38;6.53;;;2.27;;
32633;SDS011;19043;51.012;5.648;2023-09-18T05:54:04;4.22;;;2.47;;
32633;SDS011;19043;51.012;5.648;2023-09-18T05:56:29;6.95;;;2.70;;
32633;SDS011;19043;51.012;5.648;2023-09-18T05:58:54;5.30;;;2.65;;
32633;SDS011;19043;51.012;5.648;2023-09-18T06:01:20;7.22;;;2.20;;
32633;SDS011;19043;51.012;5.648;2023-09-18T06:03:45;6.75;;;2.72;;
32633;SDS011;19043;51.012;5.648;2023-09-18T06:06:10;4.23;;;2.10;;
32633;SDS011;19043;51.012;5.648;2023-09-18T06:08:36;4.63;;;2.10;;
32633;SDS011;19043;51.012;5.648;2023-09-18T06:11:01;4.23;;;2.30;;
32633;SDS011;19043;51.012;5.648;2023-09-18T06:13:27;6.97;;;2.10;;
32633;SDS011;19043;51.012;5.648;2023-09-18T06:15:53;4.55;;;1.95;;
32633;SDS011;19043;51.012;5.648;2023-09-18T06:18:19;4.50;;;2.15;;
32633;SDS011;19043;51.012;5.648;2023-09-18T06:20:45;7.35;;;2.45;;
32633;SDS011;19043;51.012;5.648;2023-09-18T06:23:11;5.05;;;2.00;;
32633;SDS011;19043;51.012;5.648;2023-09-18T06:25:36;6.70;;;2.20;;
32633;SDS011;19043;51.012;5.648;2023-09-18T06:28:03;3.95;;;1.67;;
32633;SDS011;19043;51.012;5.648;2023-09-18T06:30:29;5.82;;;2.20;;
32633;SDS011;19043;51.012;5.648;2023-09-18T06:32:55;3.50;;;1.60;;
32633;SDS011;19043;51.012;5.648;2023-09-18T06:35:21;5.53;;;1.90;;
32633;SDS011;19043;51.012;5.648;2023-09-18T06:37:46;6.05;;;2.15;;
32633;SDS011;19043;51.012;5.648;2023-09-18T06:40:11;9.43;;;1.90;;
32633;SDS011;19043;51.012;5.648;2023-09-18T06:42:37;4.97;;;1.77;;
32633;SDS011;19043;51.012;5.648;2023-09-18T06:45:03;4.75;;;1.98;;
32633;SDS011;19043;51.012;5.648;2023-09-18T06:47:31;4.63;;;1.98;;
32633;SDS011;19043;51.012;5.648;2023-09-18T06:49:57;4.97;;;1.73;;
32633;SDS011;19043;51.012;5.648;2023-09-18T06:52:22;4.80;;;1.65;;
32633;SDS011;19043;51.012;5.648;2023-09-18T06:54:48;4.53;;;1.67;;
32633;SDS011;19043;51.012;5.648;2023-09-18T06:57:13;4.63;;;1.75;;
32633;SDS011;19043;51.012;5.648;2023-09-18T06:59:38;6.17;;;1.80;;
32633;SDS011;19043;51.012;5.648;2023-09-18T07:02:04;6.30;;;2.00;;
32633;SDS011;19043;51.012;5.648;2023-09-18T07:04:29;4.28;;;1.75;;
32633;SDS011;19043;51.012;5.648;2023-09-18T07:06:54;4.67;;;1.60;;
32633;SDS011;19043;51.012;5.648;2023-09-18T07:09:21;5.65;;;1.73;;
32633;SDS011;19043;51.012;5.648;2023-09-18T07:11:48;4.55;;;2.17;;
32633;SDS011;19043;51.012;5.648;2023-09-18T07:14:13;8.40;;;2.10;;
32633;SDS011;19043;51.012;5.648;2023-09-18T07:16:38;5.63;;;1.60;;
32633;SDS011;19043;51.012;5.648;2023-09-18T07:19:04;7.27;;;2.10;;
32633;SDS011;19043;51.012;5.648;2023-09-18T07:21:30;5.10;;;1.65;;
32633;SDS011;19043;51.012;5.648;2023-09-18T07:23:55;4.75;;;1.70;;
32633;SDS011;19043;51.012;5.648;2023-09-18T07:26:20;5.75;;;1.70;;
32633;SDS011;19043;51.012;5.648;2023-09-18T07:28:45;4.47;;;1.70;;
32633;SDS011;19043;51.012;5.648;2023-09-18T07:31:11;4.28;;;1.90;;
32633;SDS011;19043;51.012;5.648;2023-09-18T07:33:37;4.68;;;1.70;;
32633;SDS011;19043;51.012;5.648;2023-09-18T07:36:02;5.55;;;1.95;;
32633;SDS011;19043;51.012;5.648;2023-09-18T07:38:28;3.38;;;1.63;;
32633;SDS011;19043;51.012;5.648;2023-09-18T07:40:54;2.83;;;1.40;;
32633;SDS011;19043;51.012;5.648;2023-09-18T07:43:19;3.85;;;1.65;;
32633;SDS011;19043;51.012;5.648;2023-09-18T07:45:45;4.53;;;1.65;;
32633;SDS011;19043;51.012;5.648;2023-09-18T07:48:10;5.00;;;2.13;;
32633;SDS011;19043;51.012;5.648;2023-09-18T07:50:35;6.13;;;1.70;;
32633;SDS011;19043;51.012;5.648;2023-09-18T07:53:01;4.43;;;1.60;;
32633;SDS011;19043;51.012;5.648;2023-09-18T07:55:27;5.15;;;1.70;;
32633;SDS011;19043;51.012;5.648;2023-09-18T07:57:52;5.57;;;1.60;;
32633;SDS011;19043;51.012;5.648;2023-09-18T08:00:17;3.60;;;1.50;;
32633;SDS011;19043;51.012;5.648;2023-09-18T08:02:43;6.03;;;1.52;;
32633;SDS011;19043;51.012;5.648;2023-09-18T08:05:08;8.77;;;1.40;;
32633;SDS011;19043;51.012;5.648;2023-09-18T08:07:34;4.93;;;1.67;;
32633;SDS011;19043;51.012;5.648;2023-09-18T08:10:01;3.20;;;1.50;;
32633;SDS011;19043;51.012;5.648;2023-09-18T08:12:26;5.03;;;1.55;;
32633;SDS011;19043;51.012;5.648;2023-09-18T08:14:52;2.93;;;1.60;;
32633;SDS011;19043;51.012;5.648;2023-09-18T08:17:17;5.15;;;1.70;;
32633;SDS011;19043;51.012;5.648;2023-09-18T08:19:42;4.20;;;2.10;;
32633;SDS011;19043;51.012;5.648;2023-09-18T08:22:09;9.27;;;1.77;;
32633;SDS011;19043;51.012;5.648;2023-09-18T08:24:36;4.05;;;1.50;;
32633;SDS011;19043;51.012;5.648;2023-09-18T08:27:02;2.80;;;1.43;;
32633;SDS011;19043;51.012;5.648;2023-09-18T08:29:28;3.47;;;1.52;;
32633;SDS011;19043;51.012;5.648;2023-09-18T08:31:53;4.63;;;1.50;;
32633;SDS011;19043;51.012;5.648;2023-09-18T08:34:18;7.07;;;1.50;;
32633;SDS011;19043;51.012;5.648;2023-09-18T08:36:44;3.53;;;1.70;;
32633;SDS011;19043;51.012;5.648;2023-09-18T08:39:09;5.63;;;1.80;;
32633;SDS011;19043;51.012;5.648;2023-09-18T08:41:37;4.40;;;1.83;;
32633;SDS011;19043;51.012;5.648;2023-09-18T08:44:03;7.32;;;1.90;;
32633;SDS011;19043;51.012;5.648;2023-09-18T08:46:32;3.92;;;1.80;;
32633;SDS011;19043;51.012;5.648;2023-09-18T08:48:59;5.40;;;1.90;;
32633;SDS011;19043;51.012;5.648;2023-09-18T08:51:25;4.90;;;2.17;;
32633;SDS011;19043;51.012;5.648;2023-09-18T08:53:51;5.65;;;1.70;;
32633;SDS011;19043;51.012;5.648;2023-09-18T08:56:17;4.82;;;1.92;;
32633;SDS011;19043;51.012;5.648;2023-09-18T08:58:42;5.05;;;1.80;;
32633;SDS011;19043;51.012;5.648;2023-09-18T09:01:11;6.03;;;1.60;;
32633;SDS011;19043;51.012;5.648;2023-09-18T09:03:37;4.63;;;1.95;;
32633;SDS011;19043;51.012;5.648;2023-09-18T09:06:03;3.17;;;1.30;;
32633;SDS011;19043;51.012;5.648;2023-09-18T09:08:28;3.97;;;1.48;;
32633;SDS011;19043;51.012;5.648;2023-09-18T09:10:54;3.22;;;1.45;;
32633;SDS011;19043;51.012;5.648;2023-09-18T09:13:19;3.10;;;1.65;;
32633;SDS011;19043;51.012;5.648;2023-09-18T09:15:51;3.70;;;1.80;;
32633;SDS011;19043;51.012;5.648;2023-09-18T09:18:18;2.83;;;1.27;;
32633;SDS011;19043;51.012;5.648;2023-09-18T09:20:52;3.78;;;1.42;;
32633;SDS011;19043;51.012;5.648;2023-09-18T09:23:18;6.65;;;1.33;;
32633;SDS011;19043;51.012;5.648;2023-09-18T09:25:44;4.37;;;1.50;;
32633;SDS011;19043;51.012;5.648;2023-09-18T09:28:09;3.78;;;1.27;;
32633;SDS011;19043;51.012;5.648;2023-09-18T09:30:35;3.80;;;1.42;;
32633;SDS011;19043;51.012;5.648;2023-09-18T09:33:03;4.32;;;1.73;;
32633;SDS011;19043;51.012;5.648;2023-09-18T09:35:30;2.92;;;1.42;;
32633;SDS011;19043;51.012;5.648;2023-09-18T09:38:11;3.10;;;1.27;;
32633;SDS011;19043;51.012;5.648;2023-09-18T09:40:40;4.82;;;1.80;;
32633;SDS011;19043;51.012;5.648;2023-09-18T09:43:07;3.35;;;1.60;;
32633;SDS011;19043;51.012;5.648;2023-09-18T09:45:33;3.90;;;1.80;;
32633;SDS011;19043;51.012;5.648;2023-09-18T09:48:01;3.65;;;1.60;;
32633;SDS011;19043;51.012;5.648;2023-09-18T09:50:27;2.22;;;1.25;;
32633;SDS011;19043;51.012;5.648;2023-09-18T09:52:54;3.85;;;1.30;;
32633;SDS011;19043;51.012;5.648;2023-09-18T09:55:20;4.90;;;1.70;;
32633;SDS011;19043;51.012;5.648;2023-09-18T10:00:43;4.10;;;1.63;;
32633;SDS011;19043;51.012;5.648;2023-09-18T10:03:14;2.75;;;1.70;;
32633;SDS011;19043;51.012;5.648;2023-09-18T10:05:40;3.88;;;1.88;;
32633;SDS011;19043;51.012;5.648;2023-09-18T10:08:10;5.10;;;1.90;;
32633;SDS011;19043;51.012;5.648;2023-09-18T10:10:38;6.10;;;2.20;;
32633;SDS011;19043;51.012;5.648;2023-09-18T10:15:50;4.13;;;1.70;;
32633;SDS011;19043;51.012;5.648;2023-09-18T10:18:22;6.93;;;1.63;;
32633;SDS011;19043;51.012;5.648;2023-09-18T10:20:51;4.97;;;1.80;;
32633;SDS011;19043;51.012;5.648;2023-09-18T10:23:27;8.32;;;2.13;;
32633;SDS011;19043;51.012;5.648;2023-09-18T10:25:56;3.70;;;1.92;;
32633;SDS011;19043;51.012;5.648;2023-09-18T10:28:24;3.75;;;1.77;;
32633;SDS011;19043;51.012;5.648;2023-09-18T10:30:51;4.95;;;1.60;;
32633;SDS011;19043;51.012;5.648;2023-09-18T10:33:17;3.22;;;1.88;;
32633;SDS011;19043;51.012;5.648;2023-09-18T10:35:42;3.90;;;1.95;;
32633;SDS011;19043;51.012;5.648;2023-09-18T10:38:08;3.45;;;2.03;;
32633;SDS011;19043;51.012;5.648;2023-09-18T10:40:34;3.30;;;1.83;;
32633;SDS011;19043;51.012;5.648;2023-09-18T10:43:00;3.08;;;1.73;;
32633;SDS011;19043;51.012;5.648;2023-09-18T10:45:27;3.63;;;1.88;;
32633;SDS011;19043;51.012;5.648;2023-09-18T10:47:53;3.60;;;1.98;;
32633;SDS011;19043;51.012;5.648;2023-09-18T10:50:22;3.28;;;2.00;;
32633;SDS011;19043;51.012;5.648;2023-09-18T10:52:48;3.47;;;1.73;;
32633;SDS011;19043;51.012;5.648;2023-09-18T10:55:13;3.77;;;2.10;;
32633;SDS011;19043;51.012;5.648;2023-09-18T10:57:51;7.13;;;1.95;;
32633;SDS011;19043;51.012;5.648;2023-09-18T11:00:17;3.22;;;1.70;;
32633;SDS011;19043;51.012;5.648;2023-09-18T11:02:47;2.97;;;1.40;;
32633;SDS011;19043;51.012;5.648;2023-09-18T11:05:13;2.90;;;1.63;;
32633;SDS011;19043;51.012;5.648;2023-09-18T11:07:39;3.35;;;1.63;;
32633;SDS011;19043;51.012;5.648;2023-09-18T11:12:48;3.28;;;1.75;;
32633;SDS011;19043;51.012;5.648;2023-09-18T11:15:26;4.25;;;1.90;;
32633;SDS011;19043;51.012;5.648;2023-09-18T11:17:59;3.58;;;1.80;;
32633;SDS011;19043;51.012;5.648;2023-09-18T11:20:24;6.07;;;1.80;;
32633;SDS011;19043;51.012;5.648;2023-09-18T11:22:59;3.67;;;1.98;;
32633;SDS011;19043;51.012;5.648;2023-09-18T11:25:37;4.63;;;1.70;;
32633;SDS011;19043;51.012;5.648;2023-09-18T11:28:04;5.15;;;1.83;;
32633;SDS011;19043;51.012;5.648;2023-09-18T11:30:32;5.68;;;2.10;;
32633;SDS011;19043;51.012;5.648;2023-09-18T11:32:58;5.68;;;2.17;;
32633;SDS011;19043;51.012;5.648;2023-09-18T11:35:24;4.55;;;1.60;;
32633;SDS011;19043;51.012;5.648;2023-09-18T11:38:03;5.50;;;2.00;;
32633;SDS011;19043;51.012;5.648;2023-09-18T11:40:31;5.03;;;2.13;;
32633;SDS011;19043;51.012;5.648;2023-09-18T11:45:43;3.13;;;1.55;;
32633;SDS011;19043;51.012;5.648;2023-09-18T11:48:09;3.38;;;1.70;;
32633;SDS011;19043;51.012;5.648;2023-09-18T11:50:35;3.45;;;1.50;;
32633;SDS011;19043;51.012;5.648;2023-09-18T11:53:01;5.47;;;1.90;;
32633;SDS011;19043;51.012;5.648;2023-09-18T11:55:27;4.90;;;1.77;;
32633;SDS011;19043;51.012;5.648;2023-09-18T11:57:53;3.83;;;1.80;;
32633;SDS011;19043;51.012;5.648;2023-09-18T12:00:23;4.65;;;1.75;;
32633;SDS011;19043;51.012;5.648;2023-09-18T12:02:52;4.72;;;1.45;;
32633;SDS011;19043;51.012;5.648;2023-09-18T12:05:17;3.55;;;1.55;;
32633;SDS011;19043;51.012;5.648;2023-09-18T12:07:46;3.00;;;1.30;;
32633;SDS011;19043;51.012;5.648;2023-09-18T12:10:15;4.65;;;1.40;;
32633;SDS011;19043;51.012;5.648;2023-09-18T12:12:42;4.03;;;1.35;;
32633;SDS011;19043;51.012;5.648;2023-09-18T12:15:08;3.47;;;1.50;;
32633;SDS011;19043;51.012;5.648;2023-09-18T12:17:35;4.05;;;1.42;;
32633;SDS011;19043;51.012;5.648;2023-09-18T12:20:01;3.33;;;1.50;;
32633;SDS011;19043;51.012;5.648;2023-09-18T12:22:26;3.53;;;1.52;;
32633;SDS011;19043;51.012;5.648;2023-09-18T12:24:52;2.63;;;1.25;;
32633;SDS011;19043;51.012;5.648;2023-09-18T12:27:17;3.38;;;1.30;;
32633;SDS011;19043;51.012;5.648;2023-09-18T12:29:43;3.65;;;1.55;;
32633;SDS011;19043;51.012;5.648;2023-09-18T12:32:11;3.03;;;1.27;;
32633;SDS011;19043;51.012;5.648;2023-09-18T12:34:42;3.08;;;1.50;;
32633;SDS011;19043;51.012;5.648;2023-09-18T12:37:08;2.83;;;1.23;;
32633;SDS011;19043;51.012;5.648;2023-09-18T12:39:36;5.90;;;1.20;;
32633;SDS011;19043;51.012;5.648;2023-09-18T12:42:01;2.72;;;1.35;;
32633;SDS011;19043;51.012;5.648;2023-09-18T12:44:26;3.30;;;1.42;;
32633;SDS011;19043;51.012;5.648;2023-09-18T12:46:52;2.63;;;1.23;;
32633;SDS011;19043;51.012;5.648;2023-09-18T12:49:20;3.33;;;1.30;;
32633;SDS011;19043;51.012;5.648;2023-09-18T12:51:58;2.80;;;1.27;;
32633;SDS011;19043;51.012;5.648;2023-09-18T12:54:43;4.05;;;1.35;;
32633;SDS011;19043;51.012;5.648;2023-09-18T12:57:10;3.22;;;1.38;;
32633;SDS011;19043;51.012;5.648;2023-09-18T12:59:36;3.20;;;1.35;;
32633;SDS011;19043;51.012;5.648;2023-09-18T13:02:03;3.08;;;1.40;;
32633;SDS011;19043;51.012;5.648;2023-09-18T13:04:35;2.75;;;1.25;;
32633;SDS011;19043;51.012;5.648;2023-09-18T13:07:11;3.55;;;1.33;;
32633;SDS011;19043;51.012;5.648;2023-09-18T13:09:37;4.25;;;0.98;;
32633;SDS011;19043;51.012;5.648;2023-09-18T13:12:03;3.20;;;1.17;;
32633;SDS011;19043;51.012;5.648;2023-09-18T13:14:28;3.92;;;1.30;;
32633;SDS011;19043;51.012;5.648;2023-09-18T13:16:59;3.08;;;1.10;;
32633;SDS011;19043;51.012;5.648;2023-09-18T13:19:25;3.17;;;1.25;;
32633;SDS011;19043;51.012;5.648;2023-09-18T13:21:50;3.60;;;1.23;;
32633;SDS011;19043;51.012;5.648;2023-09-18T13:24:28;3.45;;;1.48;;
32633;SDS011;19043;51.012;5.648;2023-09-18T13:26:54;2.72;;;1.10;;
32633;SDS011;19043;51.012;5.648;2023-09-18T13:29:20;2.83;;;1.30;;
32633;SDS011;19043;51.012;5.648;2023-09-18T13:31:46;2.83;;;1.30;;
32633;SDS011;19043;51.012;5.648;2023-09-18T13:34:11;3.50;;;1.10;;
32633;SDS011;19043;51.012;5.648;2023-09-18T13:36:36;3.00;;;1.40;;
32633;SDS011;19043;51.012;5.648;2023-09-18T13:39:02;3.05;;;1.20;;
32633;SDS011;19043;51.012;5.648;2023-09-18T13:41:28;3.30;;;1.27;;
32633;SDS011;19043;51.012;5.648;2023-09-18T13:43:53;3.67;;;1.50;;
32633;SDS011;19043;51.012;5.648;2023-09-18T13:46:20;2.78;;;1.20;;
32633;SDS011;19043;51.012;5.648;2023-09-18T13:48:45;8.23;;;1.20;;
32633;SDS011;19043;51.012;5.648;2023-09-18T13:51:13;3.13;;;1.48;;
32633;SDS011;19043;51.012;5.648;2023-09-18T13:53:38;3.60;;;1.40;;
32633;SDS011;19043;51.012;5.648;2023-09-18T13:56:05;4.18;;;1.60;;
32633;SDS011;19043;51.012;5.648;2023-09-18T13:58:30;2.50;;;1.20;;
32633;SDS011;19043;51.012;5.648;2023-09-18T14:00:55;2.93;;;1.20;;
32633;SDS011;19043;51.012;5.648;2023-09-18T14:03:22;4.63;;;1.30;;
32633;SDS011;19043;51.012;5.648;2023-09-18T14:05:48;3.80;;;1.50;;
32633;SDS011;19043;51.012;5.648;2023-09-18T14:08:14;4.82;;;1.20;;
32633;SDS011;19043;51.012;5.648;2023-09-18T14:10:39;2.67;;;1.25;;
32633;SDS011;19043;51.012;5.648;2023-09-18T14:13:04;4.10;;;1.48;;
32633;SDS011;19043;51.012;5.648;2023-09-18T14:15:30;3.13;;;1.20;;
32633;SDS011;19043;51.012;5.648;2023-09-18T14:17:55;4.10;;;1.20;;
32633;SDS011;19043;51.012;5.648;2023-09-18T14:20:20;2.83;;;1.10;;
32633;SDS011;19043;51.012;5.648;2023-09-18T14:22:46;2.50;;;1.10;;
32633;SDS011;19043;51.012;5.648;2023-09-18T14:25:14;3.55;;;1.23;;
32633;SDS011;19043;51.012;5.648;2023-09-18T14:27:40;3.15;;;1.33;;
32633;SDS011;19043;51.012;5.648;2023-09-18T14:30:06;4.90;;;1.40;;
32633;SDS011;19043;51.012;5.648;2023-09-18T14:32:32;2.50;;;1.33;;
32633;SDS011;19043;51.012;5.648;2023-09-18T14:34:58;4.90;;;1.17;;
32633;SDS011;19043;51.012;5.648;2023-09-18T14:37:26;4.00;;;1.50;;
32633;SDS011;19043;51.012;5.648;2023-09-18T14:39:51;3.03;;;1.10;;
32633;SDS011;19043;51.012;5.648;2023-09-18T14:42:17;3.50;;;1.10;;
32633;SDS011;19043;51.012;5.648;2023-09-18T14:44:42;2.67;;;1.27;;
32633;SDS011;19043;51.012;5.648;2023-09-18T14:47:10;3.00;;;1.10;;
32633;SDS011;19043;51.012;5.648;2023-09-18T14:49:35;2.55;;;1.08;;
32633;SDS011;19043;51.012;5.648;2023-09-18T14:52:02;8.93;;;1.40;;
32633;SDS011;19043;51.012;5.648;2023-09-18T14:54:28;2.90;;;1.13;;
32633;SDS011;19043;51.012;5.648;2023-09-18T14:56:53;2.92;;;1.17;;